Time;durP1;ratioP1;P1;durP2;ratioP2;P2;SDS_P1;SDS_P2;PMS_P1;PMS_P2;Temp;Humidity;BMP_temperature;BMP_pressure;BME280_temperature;BME280_humidity;BME280_pressure;Samples;Min_cycle;Max_cycle;Signal;HPM_P1;HPM_P2
2022/06/02 00:00:32;;;;;;;2.80;1.60;;;;;;;;;;4989726;28;20213;-69
2022/06/02 00:03:00;;;;;;;1.60;1.50;;;;;;;;;;4997496;28;20182;-69
2022/06/02 00:05:29;;;;;;;2.73;1.60;;;;;;;;;;5004384;28;20193;-69
2022/06/02 00:07:54;;;;;;;2.13;1.50;;;;;;;;;;5012162;28;20167;-70
2022/06/02 00:10:28;;;;;;;1.60;1.50;;;;;;;;;;5012221;28;20186;-70
2022/06/02 00:13:20;;;;;;;2.93;1.50;;;;;;;;;;5008214;28;20197;-70
2022/06/02 00:15:52;;;;;;;2.47;1.70;;;;;;;;;;4997118;28;20214;-70
2022/06/02 00:18:20;;;;;;;3.50;1.90;;;;;;;;;;5010399;28;20186;-70
2022/06/02 00:20:51;;;;;;;1.60;1.50;;;;;;;;;;5007012;28;20219;-70
2022/06/02 00:23:20;;;;;;;1.30;1.20;;;;;;;;;;4979020;28;20333;-70
2022/06/02 00:25:45;;;;;;;1.50;1.40;;;;;;;;;;4985095;28;20268;-69
2022/06/02 00:28:31;;;;;;;1.80;1.40;;;;;;;;;;4991796;28;20324;-69
2022/06/02 00:30:59;;;;;;;2.83;1.50;;;;;;;;;;5006970;28;20190;-70
2022/06/02 00:33:34;;;;;;;1.60;1.50;;;;;;;;;;5008286;28;20208;-69
2022/06/02 00:36:01;;;;;;;3.30;1.73;;;;;;;;;;5010495;28;20186;-70
2022/06/02 00:38:31;;;;;;;1.33;1.17;;;;;;;;;;4993463;28;20201;-70
2022/06/02 00:41:13;;;;;;;1.80;1.70;;;;;;;;;;4999308;28;20205;-69
2022/06/02 00:43:57;;;;;;;2.57;1.70;;;;;;;;;;4992390;28;20188;-69
2022/06/02 00:46:45;;;;;;;1.63;1.53;;;;;;;;;;5007378;28;20175;-70
2022/06/02 00:49:25;;;;;;;1.60;1.50;;;;;;;;;;5004813;28;20182;-70
2022/06/02 00:52:00;;;;;;;2.00;1.37;;;;;;;;;;5006967;28;20181;-69
2022/06/02 00:57:31;;;;;;;1.70;1.60;;;;;;;;;;4976787;28;20192;-69
2022/06/02 01:00:04;;;;;;;1.60;1.50;;;;;;;;;;5005615;28;20212;-69
2022/06/02 01:02:33;;;;;;;1.50;1.40;;;;;;;;;;4988361;28;20190;-69
2022/06/02 01:05:00;;;;;;;2.23;1.63;;;;;;;;;;4995216;28;20181;-69
2022/06/02 01:07:50;;;;;;;1.93;1.70;;;;;;;;;;5016384;28;20234;-69
2022/06/02 01:10:27;;;;;;;2.77;1.57;;;;;;;;;;4978770;28;20230;-70
2022/06/02 01:13:04;;;;;;;1.77;1.67;;;;;;;;;;5007998;28;20189;-70
2022/06/02 01:15:52;;;;;;;2.63;2.00;;;;;;;;;;5007273;28;20197;-69
2022/06/02 01:18:43;;;;;;;1.43;1.33;;;;;;;;;;5009646;28;20189;-69
2022/06/02 01:21:14;;;;;;;3.87;1.70;;;;;;;;;;5004867;28;20213;-69
2022/06/02 01:24:15;;;;;;;2.03;1.60;;;;;;;;;;5005298;28;20211;-69
2022/06/02 01:26:52;;;;;;;1.80;1.70;;;;;;;;;;4931246;29;20202;-69
2022/06/02 01:29:35;;;;;;;2.80;1.80;;;;;;;;;;4983798;28;20203;-70
2022/06/02 01:32:07;;;;;;;1.67;1.57;;;;;;;;;;4990893;28;20192;-69
2022/06/02 01:34:32;;;;;;;3.13;1.93;;;;;;;;;;5006949;28;20185;-69
2022/06/02 01:37:21;;;;;;;2.37;1.80;;;;;;;;;;5003434;28;20287;-69
2022/06/02 01:39:55;;;;;;;2.93;1.80;;;;;;;;;;5009610;28;20189;-69
2022/06/02 01:42:29;;;;;;;2.83;1.90;;;;;;;;;;5011035;28;20271;-69
2022/06/02 01:45:00;;;;;;;2.77;2.10;;;;;;;;;;5010092;28;20176;-69
2022/06/02 01:47:25;;;;;;;1.90;1.80;;;;;;;;;;5012001;28;20183;-69
2022/06/02 01:49:50;;;;;;;3.88;1.98;;;;;;;;;;5006468;28;20177;-69
2022/06/02 01:52:21;;;;;;;3.57;1.60;;;;;;;;;;5011671;28;20180;-70
2022/06/02 01:54:53;;;;;;;2.00;1.80;;;;;;;;;;5007159;28;20179;-69
2022/06/02 01:57:38;;;;;;;2.80;1.80;;;;;;;;;;4994209;28;20208;-69
2022/06/02 02:00:14;;;;;;;1.73;1.60;;;;;;;;;;5003047;28;20175;-69
2022/06/02 02:02:48;;;;;;;2.43;1.90;;;;;;;;;;5000539;28;20183;-69
2022/06/02 02:05:15;;;;;;;3.70;1.70;;;;;;;;;;5008527;28;20203;-70
2022/06/02 02:07:59;;;;;;;1.97;1.77;;;;;;;;;;5004693;28;20183;-69
2022/06/02 02:10:30;;;;;;;2.93;1.60;;;;;;;;;;5005637;28;20174;-70
2022/06/02 02:13:14;;;;;;;2.57;1.63;;;;;;;;;;5009845;28;20188;-69
2022/06/02 02:15:42;;;;;;;1.90;1.70;;;;;;;;;;5007666;28;20442;-70
2022/06/02 02:18:17;;;;;;;3.10;1.60;;;;;;;;;;5008977;28;20181;-70
2022/06/02 02:21:12;;;;;;;2.57;2.00;;;;;;;;;;4994825;28;20199;-70
2022/06/02 02:23:44;;;;;;;5.03;1.80;;;;;;;;;;4976293;28;20211;-70
2022/06/02 02:26:15;;;;;;;2.40;1.50;;;;;;;;;;5004296;28;20188;-70
2022/06/02 02:29:00;;;;;;;3.13;1.70;;;;;;;;;;4991351;28;20181;-70
2022/06/02 02:31:25;;;;;;;3.03;1.60;;;;;;;;;;5011040;28;20189;-69
2022/06/02 02:33:56;;;;;;;1.87;1.37;;;;;;;;;;5010037;28;20182;-69
2022/06/02 02:36:39;;;;;;;1.63;1.53;;;;;;;;;;5007100;28;20188;-69
2022/06/02 02:39:07;;;;;;;1.80;1.70;;;;;;;;;;5006892;28;20180;-70
2022/06/02 02:41:42;;;;;;;3.27;1.80;;;;;;;;;;4989371;28;20200;-70
2022/06/02 02:44:19;;;;;;;2.80;1.73;;;;;;;;;;5005806;28;20179;-69
2022/06/02 02:46:57;;;;;;;1.70;1.60;;;;;;;;;;5004896;28;20171;-69
2022/06/02 02:49:28;;;;;;;2.70;1.73;;;;;;;;;;5014529;28;20198;-70
2022/06/02 02:51:54;;;;;;;1.90;1.57;;;;;;;;;;5014331;28;20203;-70
2022/06/02 02:54:25;;;;;;;1.83;1.70;;;;;;;;;;5004071;28;20234;-70
2022/06/02 02:56:56;;;;;;;3.03;1.70;;;;;;;;;;4989513;28;20264;-70
2022/06/02 02:59:45;;;;;;;1.87;1.77;;;;;;;;;;5004524;28;20176;-69
2022/06/02 03:02:20;;;;;;;2.37;1.93;;;;;;;;;;5008129;28;20287;-69
2022/06/02 03:04:48;;;;;;;1.93;1.80;;;;;;;;;;4992510;28;20239;-69
2022/06/02 03:07:13;;;;;;;3.43;2.20;;;;;;;;;;5008090;28;20207;-70
2022/06/02 03:09:46;;;;;;;2.23;2.03;;;;;;;;;;5005806;28;20269;-69
2022/06/02 03:12:14;;;;;;;2.07;1.87;;;;;;;;;;5003234;28;20240;-69
2022/06/02 03:14:54;;;;;;;2.33;1.80;;;;;;;;;;5006418;28;20191;-69
2022/06/02 03:17:19;;;;;;;1.87;1.77;;;;;;;;;;5004205;28;20185;-69
2022/06/02 03:19:57;;;;;;;1.80;1.70;;;;;;;;;;4989713;28;20176;-70
2022/06/02 03:22:32;;;;;;;3.30;1.90;;;;;;;;;;5000695;28;20211;-69
2022/06/02 03:25:00;;;;;;;1.70;1.53;;;;;;;;;;5006954;28;20188;-69
2022/06/02 03:27:39;;;;;;;2.47;1.70;;;;;;;;;;4998258;28;20207;-70
2022/06/02 03:30:10;;;;;;;1.60;1.50;;;;;;;;;;5000912;28;20183;-69
2022/06/02 03:32:38;;;;;;;2.20;2.00;;;;;;;;;;5005129;28;20206;-69
2022/06/02 03:35:24;;;;;;;2.10;1.90;;;;;;;;;;4990114;28;20178;-69
2022/06/02 03:38:04;;;;;;;1.80;1.70;;;;;;;;;;4988760;28;20177;-69
2022/06/02 03:40:48;;;;;;;4.47;2.07;;;;;;;;;;5011996;28;20251;-69
2022/06/02 03:43:24;;;;;;;4.27;1.90;;;;;;;;;;4986292;28;20184;-69
2022/06/02 03:45:55;;;;;;;1.83;1.43;;;;;;;;;;4990737;28;20177;-69
2022/06/02 03:48:26;;;;;;;1.80;1.70;;;;;;;;;;4996927;28;20220;-70
2022/06/02 03:50:56;;;;;;;3.30;1.47;;;;;;;;;;4985114;28;20204;-70
2022/06/02 03:53:28;;;;;;;2.37;1.50;;;;;;;;;;4987547;28;20198;-70
2022/06/02 03:55:56;;;;;;;2.00;1.80;;;;;;;;;;4989081;28;20199;-69
2022/06/02 03:58:30;;;;;;;2.07;1.70;;;;;;;;;;5014745;28;20185;-70
2022/06/02 04:01:00;;;;;;;3.20;1.80;;;;;;;;;;4995522;28;20216;-69
2022/06/02 04:16:00;;;;;;;5.03;2.43;;;;;;;;;;5015229;28;20206;-69
2022/06/02 04:18:44;;;;;;;2.90;1.83;;;;;;;;;;4991654;28;20183;-69
2022/06/02 04:21:09;;;;;;;3.17;1.90;;;;;;;;;;4995233;28;20277;-69
2022/06/02 04:23:55;;;;;;;2.08;1.88;;;;;;;;;;5006092;28;20177;-69
2022/06/02 04:26:39;;;;;;;2.17;1.77;;;;;;;;;;4987444;28;20177;-70
2022/06/02 04:29:04;;;;;;;2.23;1.97;;;;;;;;;;5014721;28;20176;-69
2022/06/02 04:31:29;;;;;;;2.00;1.90;;;;;;;;;;5012296;28;20224;-69
2022/06/02 04:34:13;;;;;;;4.63;4.23;;;;;;;;;;4996133;28;20176;-69
2022/06/02 04:36:47;;;;;;;2.30;2.10;;;;;;;;;;5003733;28;20180;-70
2022/06/02 04:39:19;;;;;;;2.00;1.90;;;;;;;;;;5002935;28;20447;-69
2022/06/02 04:41:53;;;;;;;3.30;2.03;;;;;;;;;;4995254;28;20226;-69
2022/06/02 04:44:28;;;;;;;2.43;1.70;;;;;;;;;;5012878;28;20180;-69
2022/06/02 04:46:59;;;;;;;2.23;2.00;;;;;;;;;;5012647;28;20243;-69
2022/06/02 04:49:47;;;;;;;3.17;2.27;;;;;;;;;;5009810;28;20181;-69
2022/06/02 04:52:24;;;;;;;3.40;2.20;;;;;;;;;;5025990;28;20318;-69
2022/06/02 04:54:49;;;;;;;2.17;1.97;;;;;;;;;;5011495;28;20180;-70
2022/06/02 04:57:24;;;;;;;2.87;2.23;;;;;;;;;;5006173;28;20267;-74
2022/06/02 05:00:09;;;;;;;2.23;2.03;;;;;;;;;;5004034;28;20188;-69
2022/06/02 05:02:34;;;;;;;2.10;1.90;;;;;;;;;;4999558;28;20220;-69
2022/06/02 05:05:05;;;;;;;2.30;2.20;;;;;;;;;;5006556;28;20173;-70
2022/06/02 05:07:49;;;;;;;2.63;2.20;;;;;;;;;;5006960;28;20180;-70
2022/06/02 05:10:20;;;;;;;2.43;2.23;;;;;;;;;;5014533;28;20230;-69
2022/06/02 05:12:51;;;;;;;3.10;2.30;;;;;;;;;;5003489;28;20287;-69
2022/06/02 05:15:17;;;;;;;3.70;3.40;;;;;;;;;;4992852;28;20189;-69
2022/06/02 05:17:53;;;;;;;3.20;2.40;;;;;;;;;;4997679;28;20243;-69
2022/06/02 05:20:34;;;;;;;2.20;2.10;;;;;;;;;;5012093;28;20247;-69
2022/06/02 05:23:12;;;;;;;3.17;2.50;;;;;;;;;;5007704;28;20182;-70
2022/06/02 05:25:49;;;;;;;4.30;2.37;;;;;;;;;;4987841;28;20291;-69
2022/06/02 05:28:30;;;;;;;3.43;3.17;;;;;;;;;;4992980;28;20181;-68
2022/06/02 05:31:16;;;;;;;2.30;2.17;;;;;;;;;;4986914;28;20181;-69
2022/06/02 05:34:05;;;;;;;3.73;2.80;;;;;;;;;;5005958;28;20184;-69
2022/06/02 05:36:34;;;;;;;4.03;3.73;;;;;;;;;;5014861;28;20181;-69
2022/06/02 05:39:06;;;;;;;4.23;2.47;;;;;;;;;;4994471;28;20184;-69
2022/06/02 05:41:40;;;;;;;2.50;2.30;;;;;;;;;;5006887;28;20203;-70
2022/06/02 05:44:18;;;;;;;3.13;2.30;;;;;;;;;;4990582;28;20257;-69
2022/06/02 05:46:58;;;;;;;4.43;2.97;;;;;;;;;;4992278;28;20185;-70
2022/06/02 05:49:48;;;;;;;3.87;2.40;;;;;;;;;;5011992;28;20267;-69
2022/06/02 05:52:25;;;;;;;2.83;2.63;;;;;;;;;;5001752;28;20258;-70
2022/06/02 05:55:11;;;;;;;4.40;2.50;;;;;;;;;;4995669;28;20198;-70
2022/06/02 05:57:38;;;;;;;2.60;2.40;;;;;;;;;;4985349;28;20212;-70
2022/06/02 06:00:11;;;;;;;2.57;2.23;;;;;;;;;;4991862;28;20209;-70
2022/06/02 06:02:50;;;;;;;2.47;2.27;;;;;;;;;;5004553;28;20177;-70
2022/06/02 06:05:16;;;;;;;3.03;2.30;;;;;;;;;;4990702;28;20181;-70
2022/06/02 06:07:45;;;;;;;2.30;2.20;;;;;;;;;;4999861;28;20209;-70
2022/06/02 06:10:20;;;;;;;2.73;2.47;;;;;;;;;;5000521;28;20188;-70
2022/06/02 06:13:04;;;;;;;2.70;2.37;;;;;;;;;;5004365;28;20208;-70
2022/06/02 06:15:41;;;;;;;2.47;2.17;;;;;;;;;;4998181;28;20186;-70
2022/06/02 06:18:25;;;;;;;2.57;2.37;;;;;;;;;;4995377;28;20177;-77
2022/06/02 06:21:09;;;;;;;2.40;2.20;;;;;;;;;;4986185;28;20210;-76
2022/06/02 06:23:53;;;;;;;2.13;2.03;;;;;;;;;;4992245;28;20190;-73
2022/06/02 06:26:18;;;;;;;2.53;2.33;;;;;;;;;;5007328;28;20188;-73
2022/06/02 06:28:53;;;;;;;3.70;2.40;;;;;;;;;;4994252;28;20247;-73
2022/06/02 06:31:21;;;;;;;2.40;2.20;;;;;;;;;;5002058;28;20216;-73
2022/06/02 06:33:50;;;;;;;2.43;2.23;;;;;;;;;;4997876;28;20180;-73
2022/06/02 06:36:30;;;;;;;4.60;3.67;;;;;;;;;;4999499;28;20188;-73
2022/06/02 06:39:03;;;;;;;2.20;2.10;;;;;;;;;;4993206;28;20256;-73
2022/06/02 06:41:28;;;;;;;3.33;2.20;;;;;;;;;;4995628;28;20594;-73
2022/06/02 06:43:53;;;;;;;2.57;2.37;;;;;;;;;;5013121;28;20178;-73
2022/06/02 06:46:27;;;;;;;2.13;2.03;;;;;;;;;;5006719;28;20193;-73
2022/06/02 06:51:20;;;;;;;4.00;2.20;;;;;;;;;;4993753;28;20250;-72
2022/06/02 06:53:45;;;;;;;4.37;2.40;;;;;;;;;;4992851;28;20317;-73
2022/06/02 06:56:26;;;;;;;2.30;2.10;;;;;;;;;;5002457;28;20176;-72
2022/06/02 06:59:10;;;;;;;2.57;2.10;;;;;;;;;;5003949;28;20181;-73
2022/06/02 07:01:42;;;;;;;1.80;1.70;;;;;;;;;;4991283;28;20207;-73
2022/06/02 07:04:22;;;;;;;2.53;2.33;;;;;;;;;;4971921;28;20182;-73
2022/06/02 07:06:52;;;;;;;2.90;2.10;;;;;;;;;;4991812;28;20174;-73
2022/06/02 07:09:33;;;;;;;2.80;2.40;;;;;;;;;;4988566;28;20182;-73
2022/06/02 07:15:10;;;;;;;1.67;1.57;;;;;;;;;;4987337;28;20611;-73
2022/06/02 07:17:49;;;;;;;3.57;2.30;;;;;;;;;;4968169;28;20198;-73
2022/06/02 07:20:24;;;;;;;2.73;2.20;;;;;;;;;;4997967;28;20190;-73
2022/06/02 07:23:09;;;;;;;2.60;2.40;;;;;;;;;;4991178;28;20174;-73
2022/06/02 07:25:40;;;;;;;2.50;2.20;;;;;;;;;;4997557;28;20186;-73
2022/06/02 07:28:12;;;;;;;3.33;2.13;;;;;;;;;;4975140;28;20176;-73
2022/06/02 07:30:41;;;;;;;3.63;2.40;;;;;;;;;;4972846;28;20184;-73
2022/06/02 07:33:20;;;;;;;4.00;2.13;;;;;;;;;;4979382;28;20254;-73
2022/06/02 07:36:11;;;;;;;3.03;1.93;;;;;;;;;;4980074;28;20240;-73
2022/06/02 07:38:45;;;;;;;2.80;2.00;;;;;;;;;;4975843;28;20190;-73
2022/06/02 07:41:23;;;;;;;2.70;2.50;;;;;;;;;;5012993;28;20261;-73
2022/06/02 07:43:51;;;;;;;2.50;2.30;;;;;;;;;;4993324;28;20176;-73
2022/06/02 07:46:19;;;;;;;3.23;2.00;;;;;;;;;;5000051;28;20181;-73
2022/06/02 07:48:45;;;;;;;3.10;2.10;;;;;;;;;;5004991;28;20177;-73
2022/06/02 07:51:36;;;;;;;3.77;1.90;;;;;;;;;;5014058;28;20233;-73
2022/06/02 07:54:19;;;;;;;5.70;2.13;;;;;;;;;;4975640;28;20219;-73
2022/06/02 07:57:05;;;;;;;3.20;2.20;;;;;;;;;;4977739;28;20176;-73
2022/06/02 07:59:39;;;;;;;4.93;1.97;;;;;;;;;;4987904;28;20180;-73
2022/06/02 08:02:22;;;;;;;2.30;2.10;;;;;;;;;;4978069;28;20244;-73
2022/06/02 08:04:53;;;;;;;2.30;2.10;;;;;;;;;;4993286;28;20188;-73
2022/06/02 08:07:25;;;;;;;3.83;1.93;;;;;;;;;;4997513;28;20180;-73
2022/06/02 08:10:11;;;;;;;2.60;2.10;;;;;;;;;;4975498;28;20168;-74
2022/06/02 08:12:42;;;;;;;2.23;1.80;;;;;;;;;;5000787;28;20180;-73
2022/06/02 08:15:26;;;;;;;2.90;1.90;;;;;;;;;;4969526;28;20245;-73
2022/06/02 08:18:01;;;;;;;2.80;1.90;;;;;;;;;;4965309;28;20186;-73
2022/06/02 08:20:32;;;;;;;8.70;2.50;;;;;;;;;;4969558;28;20186;-73
2022/06/02 08:23:16;;;;;;;2.53;2.33;;;;;;;;;;4973394;28;20177;-73
2022/06/02 08:25:47;;;;;;;2.00;1.90;;;;;;;;;;4993514;28;20375;-73
2022/06/02 08:28:33;;;;;;;2.00;1.90;;;;;;;;;;4995736;28;20195;-73
2022/06/02 08:31:07;;;;;;;3.20;2.00;;;;;;;;;;4995271;28;20199;-73
2022/06/02 08:33:42;;;;;;;2.70;2.23;;;;;;;;;;4973699;28;20182;-73
2022/06/02 08:36:15;;;;;;;3.67;2.30;;;;;;;;;;4978449;28;20278;-73
2022/06/02 08:39:02;;;;;;;2.37;2.17;;;;;;;;;;4976557;28;20198;-73
2022/06/02 08:41:33;;;;;;;2.83;2.50;;;;;;;;;;4994100;28;20207;-73
2022/06/02 08:44:17;;;;;;;3.27;2.47;;;;;;;;;;5000596;28;20184;-73
2022/06/02 08:46:55;;;;;;;2.40;2.20;;;;;;;;;;4973841;28;20191;-74
2022/06/02 08:49:39;;;;;;;3.63;2.40;;;;;;;;;;4978363;28;20238;-73
2022/06/02 08:52:23;;;;;;;2.30;2.10;;;;;;;;;;4992282;28;20210;-73
2022/06/02 08:55:07;;;;;;;3.37;2.10;;;;;;;;;;4995410;28;20191;-73
2022/06/02 08:57:53;;;;;;;3.50;2.30;;;;;;;;;;4995694;28;20191;-73
2022/06/02 09:00:39;;;;;;;4.40;1.97;;;;;;;;;;5010639;28;20214;-73
2022/06/02 09:03:13;;;;;;;2.23;2.03;;;;;;;;;;4997043;28;20199;-73
2022/06/02 09:05:57;;;;;;;4.50;2.87;;;;;;;;;;5011060;28;20176;-73
2022/06/02 09:08:22;;;;;;;4.60;2.90;;;;;;;;;;4994574;28;20188;-74
2022/06/02 09:10:53;;;;;;;3.00;2.40;;;;;;;;;;5000081;28;20217;-73
2022/06/02 09:13:38;;;;;;;5.33;2.40;;;;;;;;;;5022609;28;20234;-74
2022/06/02 09:16:03;;;;;;;3.07;2.40;;;;;;;;;;5006871;28;20189;-73
2022/06/02 09:18:47;;;;;;;4.57;3.15;;;;;;;;;;4994667;28;20187;-74
2022/06/02 09:21:28;;;;;;;3.47;2.70;;;;;;;;;;5009613;28;20296;-73
2022/06/02 09:24:12;;;;;;;3.80;2.00;;;;;;;;;;4990292;28;20180;-73
2022/06/02 09:26:53;;;;;;;5.23;2.70;;;;;;;;;;5010913;28;20278;-73
2022/06/02 09:29:18;;;;;;;3.30;2.37;;;;;;;;;;4993991;28;20184;-73
2022/06/02 09:31:51;;;;;;;5.07;2.30;;;;;;;;;;4996585;28;20180;-73
2022/06/02 09:34:35;;;;;;;2.67;2.47;;;;;;;;;;4993039;28;20197;-73
2022/06/02 09:37:06;;;;;;;2.37;2.13;;;;;;;;;;5008479;28;20230;-74
2022/06/02 09:39:34;;;;;;;2.70;2.50;;;;;;;;;;4994859;28;20182;-73
2022/06/02 09:42:21;;;;;;;2.97;2.57;;;;;;;;;;4995413;28;20205;-73
2022/06/02 09:45:06;;;;;;;3.50;2.30;;;;;;;;;;5007986;28;20233;-73
2022/06/02 09:47:40;;;;;;;4.00;2.50;;;;;;;;;;5005733;28;20240;-74
2022/06/02 09:50:28;;;;;;;3.97;2.30;;;;;;;;;;4991628;28;20297;-73
2022/06/02 09:53:16;;;;;;;2.47;2.27;;;;;;;;;;5007275;28;20195;-73
2022/06/02 09:55:41;;;;;;;3.23;2.93;;;;;;;;;;5020337;28;20180;-73
2022/06/02 09:58:12;;;;;;;2.83;2.63;;;;;;;;;;5012844;28;20217;-73
2022/06/02 10:00:38;;;;;;;2.07;1.97;;;;;;;;;;5013302;28;20203;-74
2022/06/02 10:03:27;;;;;;;2.50;2.20;;;;;;;;;;4986380;28;20194;-73
2022/06/02 10:06:12;;;;;;;2.90;2.40;;;;;;;;;;4992728;28;20175;-73
2022/06/02 10:08:58;;;;;;;2.73;2.53;;;;;;;;;;4994625;28;20292;-73
2022/06/02 10:11:36;;;;;;;5.13;2.57;;;;;;;;;;4993364;28;20241;-73
2022/06/02 10:14:20;;;;;;;7.53;2.70;;;;;;;;;;5015840;28;20199;-73
2022/06/02 10:16:57;;;;;;;3.43;2.40;;;;;;;;;;4995149;28;20175;-73
2022/06/02 10:19:43;;;;;;;3.37;2.10;;;;;;;;;;4991766;28;20185;-73
2022/06/02 10:22:21;;;;;;;2.60;2.33;;;;;;;;;;4993678;28;20259;-74
2022/06/02 10:24:58;;;;;;;2.70;2.50;;;;;;;;;;4995785;28;20176;-73
2022/06/02 10:27:23;;;;;;;6.13;2.67;;;;;;;;;;4991241;28;20251;-74
2022/06/02 10:30:07;;;;;;;10.67;3.00;;;;;;;;;;4991393;28;20271;-74
2022/06/02 10:32:46;;;;;;;3.17;2.87;;;;;;;;;;4996055;28;20177;-73
2022/06/02 10:35:14;;;;;;;2.70;2.50;;;;;;;;;;5011730;28;20252;-73
2022/06/02 10:37:39;;;;;;;2.60;2.40;;;;;;;;;;5012739;28;20183;-73
2022/06/02 10:40:23;;;;;;;3.30;2.87;;;;;;;;;;4994161;28;20267;-73
2022/06/02 10:42:48;;;;;;;2.90;2.70;;;;;;;;;;5021799;28;20188;-73
2022/06/02 10:45:20;;;;;;;4.73;2.67;;;;;;;;;;5011151;28;20186;-73
2022/06/02 10:47:45;;;;;;;3.57;2.60;;;;;;;;;;4996209;28;20185;-73
2022/06/02 10:50:10;;;;;;;4.13;2.57;;;;;;;;;;4980750;28;20239;-73
2022/06/02 10:52:51;;;;;;;2.77;2.43;;;;;;;;;;4971674;28;20204;-74
2022/06/02 10:55:25;;;;;;;2.33;2.13;;;;;;;;;;4973707;28;20192;-74
2022/06/02 10:57:53;;;;;;;2.83;2.63;;;;;;;;;;4972873;28;20242;-74
2022/06/02 11:00:19;;;;;;;3.67;2.30;;;;;;;;;;5005198;28;20181;-73
2022/06/02 11:02:47;;;;;;;2.93;2.73;;;;;;;;;;4974712;28;20270;-73
2022/06/02 11:05:15;;;;;;;6.43;2.57;;;;;;;;;;4978700;28;20254;-74
2022/06/02 11:07:59;;;;;;;6.70;2.93;;;;;;;;;;4973049;28;20173;-74
2022/06/02 11:10:28;;;;;;;6.37;2.90;;;;;;;;;;4999354;28;20232;-74
2022/06/02 11:13:13;;;;;;;2.60;2.40;;;;;;;;;;5001780;28;20197;-73
2022/06/02 11:16:04;;;;;;;2.55;2.35;;;;;;;;;;4973098;28;20184;-74
2022/06/02 11:21:05;;;;;;;4.30;2.30;;;;;;;;;;5001946;28;20246;-75
2022/06/02 11:23:49;;;;;;;2.67;2.10;;;;;;;;;;4990397;28;20206;-77
2022/06/02 11:26:14;;;;;;;4.75;2.20;;;;;;;;;;4990556;28;20444;-77
2022/06/02 11:28:57;;;;;;;3.83;2.08;;;;;;;;;;5004591;28;20251;-77
2022/06/02 11:31:41;;;;;;;2.50;2.30;;;;;;;;;;4990188;28;20492;-77
2022/06/02 11:34:13;;;;;;;2.88;2.22;;;;;;;;;;4989988;28;20208;-77
2022/06/02 11:36:45;;;;;;;2.58;2.38;;;;;;;;;;5004510;28;20218;-77
2022/06/02 11:39:10;;;;;;;3.85;2.05;;;;;;;;;;4975966;28;20222;-76
2022/06/02 11:41:42;;;;;;;4.18;2.50;;;;;;;;;;5006533;28;20220;-77
2022/06/02 11:44:12;;;;;;;2.60;2.20;;;;;;;;;;4991357;28;20241;-77
2022/06/02 11:46:56;;;;;;;2.38;2.17;;;;;;;;;;4978256;28;20180;-77
2022/06/02 11:49:30;;;;;;;4.30;2.42;;;;;;;;;;4990856;28;20207;-76
2022/06/02 11:51:55;;;;;;;3.28;2.50;;;;;;;;;;5005116;28;20520;-76
2022/06/02 11:54:39;;;;;;;2.33;2.13;;;;;;;;;;5010782;28;20183;-76
2022/06/02 11:57:14;;;;;;;2.60;2.40;;;;;;;;;;4997471;28;20413;-77
2022/06/02 11:59:45;;;;;;;3.25;2.25;;;;;;;;;;4991916;28;20167;-76
2022/06/02 12:02:29;;;;;;;3.95;2.38;;;;;;;;;;4997289;28;20200;-77
2022/06/02 12:04:57;;;;;;;13.10;4.72;;;;;;;;;;5007784;28;20242;-77
2022/06/02 12:07:38;;;;;;;3.25;2.20;;;;;;;;;;5011202;28;20194;-76
2022/06/02 12:10:19;;;;;;;8.80;3.08;;;;;;;;;;4994060;28;20206;-77
2022/06/02 12:13:02;;;;;;;2.67;2.40;;;;;;;;;;4999501;28;20179;-77
2022/06/02 12:15:45;;;;;;;2.38;2.17;;;;;;;;;;4994091;28;20179;-76
2022/06/02 12:18:26;;;;;;;3.15;2.40;;;;;;;;;;4988187;28;20168;-77
2022/06/02 12:20:54;;;;;;;3.60;2.30;;;;;;;;;;5014171;28;20257;-76
2022/06/02 12:23:38;;;;;;;8.23;2.50;;;;;;;;;;5018219;28;20175;-76
2022/06/02 12:26:05;;;;;;;11.65;2.90;;;;;;;;;;5012385;28;20180;-77
2022/06/02 12:28:41;;;;;;;4.72;2.53;;;;;;;;;;5013912;28;20190;-77
2022/06/02 12:31:30;;;;;;;4.47;2.50;;;;;;;;;;5012598;28;20237;-76
2022/06/02 12:34:14;;;;;;;4.15;2.05;;;;;;;;;;4997263;28;20179;-76
2022/06/02 12:36:58;;;;;;;3.92;2.40;;;;;;;;;;5005592;28;20324;-76
2022/06/02 12:39:30;;;;;;;5.25;2.10;;;;;;;;;;5000524;28;20313;-76
2022/06/02 12:42:13;;;;;;;3.00;2.42;;;;;;;;;;5020496;28;20211;-77
2022/06/02 12:44:57;;;;;;;2.97;2.20;;;;;;;;;;5005634;28;20199;-76
2022/06/02 12:47:41;;;;;;;2.67;2.10;;;;;;;;;;5014031;28;20172;-76
2022/06/02 12:50:16;;;;;;;3.40;2.17;;;;;;;;;;5002318;28;20195;-77
2022/06/02 12:52:42;;;;;;;2.78;2.45;;;;;;;;;;4983637;28;20198;-76
2022/06/02 12:55:07;;;;;;;3.17;1.95;;;;;;;;;;5003704;28;20175;-77
2022/06/02 12:57:38;;;;;;;2.80;2.50;;;;;;;;;;5018648;28;20404;-76
2022/06/02 13:00:16;;;;;;;2.25;2.05;;;;;;;;;;4999048;28;20226;-77
2022/06/02 13:02:41;;;;;;;7.32;2.70;;;;;;;;;;4987609;28;20230;-77
2022/06/02 13:05:19;;;;;;;3.73;2.80;;;;;;;;;;5007195;28;20205;-77
2022/06/02 13:07:53;;;;;;;2.55;2.13;;;;;;;;;;4996230;28;20452;-76
2022/06/02 13:10:31;;;;;;;4.80;2.22;;;;;;;;;;5010028;28;20175;-76
2022/06/02 13:12:57;;;;;;;6.93;2.45;;;;;;;;;;5007010;28;20182;-76
2022/06/02 13:15:30;;;;;;;3.72;2.78;;;;;;;;;;5005816;28;20180;-76
2022/06/02 13:18:13;;;;;;;2.53;2.10;;;;;;;;;;5000645;28;20179;-76
2022/06/02 13:21:16;;;;;;;3.70;2.15;;;;;;;;;;5009809;28;20219;-77
2022/06/02 13:24:02;;;;;;;2.90;2.53;;;;;;;;;;5005062;28;20229;-76
2022/06/02 13:26:33;;;;;;;5.57;2.20;;;;;;;;;;5004941;28;20173;-77
2022/06/02 13:29:09;;;;;;;2.80;2.28;;;;;;;;;;4994006;28;20211;-77
2022/06/02 13:31:34;;;;;;;4.72;2.40;;;;;;;;;;5009474;28;20185;-76
2022/06/02 13:34:22;;;;;;;3.25;2.08;;;;;;;;;;4997256;28;20176;-76
2022/06/02 13:37:17;;;;;;;2.35;2.17;;;;;;;;;;5022763;28;20191;-76
2022/06/02 13:40:01;;;;;;;2.53;2.30;;;;;;;;;;5007643;28;20238;-76
2022/06/02 13:42:33;;;;;;;2.20;2.00;;;;;;;;;;5017827;28;20210;-76
2022/06/02 13:45:02;;;;;;;2.95;2.10;;;;;;;;;;5010472;28;20461;-77
2022/06/02 13:47:38;;;;;;;3.20;2.55;;;;;;;;;;5011099;28;20195;-76
2022/06/02 13:50:27;;;;;;;2.25;2.00;;;;;;;;;;4995057;28;20187;-76
2022/06/02 13:53:01;;;;;;;2.45;2.22;;;;;;;;;;5001567;28;20190;-74
2022/06/02 13:58:20;;;;;;;3.10;2.90;;;;;;;;;;4999796;28;20306;-73
2022/06/02 14:00:51;;;;;;;6.10;2.50;;;;;;;;;;4998457;28;20214;-73
2022/06/02 14:03:19;;;;;;;2.92;2.60;;;;;;;;;;4992906;28;20180;-73
2022/06/02 14:05:45;;;;;;;2.30;2.05;;;;;;;;;;4994878;28;20186;-73
2022/06/02 14:08:10;;;;;;;2.03;1.93;;;;;;;;;;5002548;28;20177;-73
2022/06/02 14:10:44;;;;;;;3.17;2.40;;;;;;;;;;5010518;28;20421;-73
2022/06/02 14:13:32;;;;;;;5.93;2.33;;;;;;;;;;5015605;28;20179;-73
2022/06/02 14:16:02;;;;;;;3.20;2.20;;;;;;;;;;4996898;28;20181;-73
2022/06/02 14:18:30;;;;;;;3.60;1.90;;;;;;;;;;5002466;28;20176;-73
2022/06/02 14:21:16;;;;;;;2.00;1.88;;;;;;;;;;4993293;28;20230;-81
2022/06/02 14:23:44;;;;;;;2.20;1.80;;;;;;;;;;5006906;28;20175;-81
2022/06/02 14:26:27;;;;;;;2.28;2.00;;;;;;;;;;4989903;28;20575;-74
2022/06/02 14:28:56;;;;;;;2.47;2.10;;;;;;;;;;5019694;28;20202;-74
2022/06/02 14:31:40;;;;;;;3.90;3.20;;;;;;;;;;5003345;28;20179;-74
2022/06/02 14:34:13;;;;;;;2.10;2.00;;;;;;;;;;5005046;28;20260;-73
2022/06/02 14:36:38;;;;;;;2.20;2.10;;;;;;;;;;5007668;28;20237;-74
2022/06/02 14:39:06;;;;;;;3.47;2.00;;;;;;;;;;5007877;28;20188;-73
2022/06/02 14:41:32;;;;;;;5.40;2.33;;;;;;;;;;5004365;28;20196;-75
2022/06/02 14:44:16;;;;;;;5.80;2.65;;;;;;;;;;5010825;28;20207;-75
2022/06/02 14:46:41;;;;;;;2.75;2.50;;;;;;;;;;4992276;28;20199;-75
2022/06/02 14:49:15;;;;;;;3.90;2.00;;;;;;;;;;5004968;28;20242;-75
2022/06/02 14:51:44;;;;;;;4.65;2.40;;;;;;;;;;5002772;28;20278;-75
2022/06/02 14:54:12;;;;;;;4.13;2.22;;;;;;;;;;4978157;28;20299;-79
2022/06/02 14:56:56;;;;;;;2.15;2.00;;;;;;;;;;4988454;28;20199;-75
2022/06/02 14:59:21;;;;;;;2.17;1.98;;;;;;;;;;4980604;28;20184;-75
2022/06/02 15:02:06;;;;;;;4.35;2.30;;;;;;;;;;4989136;28;20207;-74
2022/06/02 15:04:32;;;;;;;3.78;2.47;;;;;;;;;;4988161;28;20321;-74
2022/06/02 15:07:17;;;;;;;3.95;2.20;;;;;;;;;;4990574;28;20194;-75
2022/06/02 15:10:02;;;;;;;2.17;2.03;;;;;;;;;;4983482;28;20483;-75
2022/06/02 15:12:30;;;;;;;3.05;2.13;;;;;;;;;;4977249;28;20187;-75
2022/06/02 15:15:08;;;;;;;3.05;1.90;;;;;;;;;;4986953;28;20187;-75
2022/06/02 15:17:56;;;;;;;3.05;1.90;;;;;;;;;;4983374;28;20210;-75
2022/06/02 15:20:37;;;;;;;2.92;2.30;;;;;;;;;;4984822;28;20235;-75
2022/06/02 15:23:21;;;;;;;3.50;2.00;;;;;;;;;;5009278;28;20227;-74
2022/06/02 15:26:12;;;;;;;2.42;1.80;;;;;;;;;;5002301;28;20167;-74
2022/06/02 15:28:53;;;;;;;2.40;2.17;;;;;;;;;;4959465;28;20242;-75
2022/06/02 15:31:19;;;;;;;3.15;2.10;;;;;;;;;;5003560;28;20190;-75
2022/06/02 15:34:03;;;;;;;2.08;1.98;;;;;;;;;;5015074;28;20266;-75
2022/06/02 15:36:47;;;;;;;2.60;2.22;;;;;;;;;;4982186;28;20184;-75
2022/06/02 15:39:23;;;;;;;2.20;2.00;;;;;;;;;;4982076;28;20187;-75
2022/06/02 15:42:08;;;;;;;2.33;2.13;;;;;;;;;;4992731;28;20371;-75
2022/06/02 15:44:52;;;;;;;3.20;2.13;;;;;;;;;;5008026;28;20175;-75
2022/06/02 15:47:17;;;;;;;5.65;2.10;;;;;;;;;;4986689;28;20220;-75
2022/06/02 15:49:49;;;;;;;2.97;2.63;;;;;;;;;;4995372;28;20207;-75
2022/06/02 15:52:23;;;;;;;2.42;2.00;;;;;;;;;;4999853;28;20198;-75
2022/06/02 15:54:54;;;;;;;3.90;2.35;;;;;;;;;;4999667;28;20171;-75
2022/06/02 15:57:25;;;;;;;3.08;2.88;;;;;;;;;;4991159;28;20180;-75
2022/06/02 16:00:06;;;;;;;2.30;2.10;;;;;;;;;;4999256;28;20230;-74